sensor_id;sensor_type;location;lat;lon;timestamp;P1;durP1;ratioP1;P2;durP2;ratioP2
29938;SDS011;16799;50.844;5.304;2022-08-20T00:00:27;13.10;;;3.80;;
29938;SDS011;16799;50.844;5.304;2022-08-20T00:02:56;3.87;;;3.53;;
29938;SDS011;16799;50.844;5.304;2022-08-20T00:05:29;7.50;;;4.43;;
29938;SDS011;16799;50.844;5.304;2022-08-20T00:08:01;11.03;;;6.37;;
29938;SDS011;16799;50.844;5.304;2022-08-20T00:10:28;6.07;;;4.90;;
29938;SDS011;16799;50.844;5.304;2022-08-20T00:12:55;5.80;;;5.20;;
29938;SDS011;16799;50.844;5.304;2022-08-20T00:15:26;6.10;;;5.33;;
29938;SDS011;16799;50.844;5.304;2022-08-20T00:17:54;7.00;;;6.40;;
29938;SDS011;16799;50.844;5.304;2022-08-20T00:20:21;9.57;;;6.00;;
29938;SDS011;16799;50.844;5.304;2022-08-20T00:22:55;6.20;;;5.80;;
29938;SDS011;16799;50.844;5.304;2022-08-20T00:25:21;8.50;;;7.20;;
29938;SDS011;16799;50.844;5.304;2022-08-20T00:27:48;6.80;;;6.20;;
29938;SDS011;16799;50.844;5.304;2022-08-20T00:30:14;7.30;;;6.77;;
29938;SDS011;16799;50.844;5.304;2022-08-20T00:32:41;7.77;;;7.20;;
29938;SDS011;16799;50.844;5.304;2022-08-20T00:35:13;11.13;;;7.03;;
29938;SDS011;16799;50.844;5.304;2022-08-20T00:37:39;7.70;;;7.00;;
29938;SDS011;16799;50.844;5.304;2022-08-20T00:40:06;8.03;;;7.23;;
29938;SDS011;16799;50.844;5.304;2022-08-20T00:42:43;10.20;;;7.33;;
29938;SDS011;16799;50.844;5.304;2022-08-20T00:45:14;9.80;;;8.33;;
29938;SDS011;16799;50.844;5.304;2022-08-20T00:47:42;14.50;;;8.57;;
29938;SDS011;16799;50.844;5.304;2022-08-20T00:50:11;12.23;;;7.53;;
29938;SDS011;16799;50.844;5.304;2022-08-20T00:52:41;13.30;;;8.43;;
29938;SDS011;16799;50.844;5.304;2022-08-20T00:55:09;8.53;;;7.73;;
29938;SDS011;16799;50.844;5.304;2022-08-20T00:57:37;13.73;;;7.77;;
29938;SDS011;16799;50.844;5.304;2022-08-20T01:00:09;10.83;;;8.10;;
29938;SDS011;16799;50.844;5.304;2022-08-20T01:02:38;10.83;;;9.63;;
29938;SDS011;16799;50.844;5.304;2022-08-20T01:05:06;9.40;;;8.20;;
29938;SDS011;16799;50.844;5.304;2022-08-20T01:07:33;13.40;;;9.17;;
29938;SDS011;16799;50.844;5.304;2022-08-20T01:10:00;10.07;;;8.20;;
29938;SDS011;16799;50.844;5.304;2022-08-20T01:12:32;12.93;;;8.83;;
29938;SDS011;16799;50.844;5.304;2022-08-20T01:14:59;9.03;;;8.33;;
29938;SDS011;16799;50.844;5.304;2022-08-20T01:17:27;10.30;;;9.40;;
29938;SDS011;16799;50.844;5.304;2022-08-20T01:19:58;12.73;;;8.60;;
29938;SDS011;16799;50.844;5.304;2022-08-20T01:25:59;10.50;;;9.60;;
29938;SDS011;16799;50.844;5.304;2022-08-20T01:28:55;11.70;;;7.30;;
29938;SDS011;16799;50.844;5.304;2022-08-20T01:31:30;7.97;;;7.27;;
29938;SDS011;16799;50.844;5.304;2022-08-20T01:33:59;11.10;;;8.37;;
29938;SDS011;16799;50.844;5.304;2022-08-20T01:36:27;7.73;;;7.10;;
29938;SDS011;16799;50.844;5.304;2022-08-20T01:38:58;7.73;;;7.03;;
29938;SDS011;16799;50.844;5.304;2022-08-20T01:41:28;10.90;;;8.30;;
29938;SDS011;16799;50.844;5.304;2022-08-20T01:44:08;11.23;;;7.50;;
29938;SDS011;16799;50.844;5.304;2022-08-20T01:46:38;9.13;;;7.87;;
29938;SDS011;16799;50.844;5.304;2022-08-20T01:49:26;17.87;;;9.87;;
29938;SDS011;16799;50.844;5.304;2022-08-20T01:51:57;14.03;;;8.30;;
29938;SDS011;16799;50.844;5.304;2022-08-20T01:54:26;10.73;;;8.50;;
29938;SDS011;16799;50.844;5.304;2022-08-20T01:56:54;9.47;;;8.67;;
29938;SDS011;16799;50.844;5.304;2022-08-20T01:59:24;8.63;;;7.40;;
29938;SDS011;16799;50.844;5.304;2022-08-20T02:01:50;8.20;;;7.20;;
29938;SDS011;16799;50.844;5.304;2022-08-20T02:04:17;8.57;;;7.80;;
29938;SDS011;16799;50.844;5.304;2022-08-20T02:06:51;13.80;;;7.83;;
29938;SDS011;16799;50.844;5.304;2022-08-20T02:09:19;8.33;;;7.27;;
29938;SDS011;16799;50.844;5.304;2022-08-20T02:11:45;8.67;;;7.40;;
29938;SDS011;16799;50.844;5.304;2022-08-20T02:14:12;10.40;;;7.60;;
29938;SDS011;16799;50.844;5.304;2022-08-20T02:16:39;13.10;;;7.27;;
29938;SDS011;16799;50.844;5.304;2022-08-20T02:19:13;10.93;;;8.70;;
29938;SDS011;16799;50.844;5.304;2022-08-20T02:21:42;9.73;;;7.50;;
29938;SDS011;16799;50.844;5.304;2022-08-20T02:24:12;8.60;;;7.50;;
29938;SDS011;16799;50.844;5.304;2022-08-20T02:26:39;10.13;;;7.30;;
29938;SDS011;16799;50.844;5.304;2022-08-20T02:29:07;15.27;;;7.73;;
29938;SDS011;16799;50.844;5.304;2022-08-20T02:31:34;7.83;;;7.10;;
29938;SDS011;16799;50.844;5.304;2022-08-20T02:34:03;18.23;;;7.57;;
29938;SDS011;16799;50.844;5.304;2022-08-20T02:36:30;10.27;;;8.70;;
29938;SDS011;16799;50.844;5.304;2022-08-20T02:38:56;7.97;;;7.10;;
29938;SDS011;16799;50.844;5.304;2022-08-20T02:41:22;16.27;;;6.93;;
29938;SDS011;16799;50.844;5.304;2022-08-20T02:43:48;13.73;;;6.77;;
29938;SDS011;16799;50.844;5.304;2022-08-20T02:46:15;14.20;;;8.57;;
29938;SDS011;16799;50.844;5.304;2022-08-20T02:48:42;8.10;;;6.90;;
29938;SDS011;16799;50.844;5.304;2022-08-20T02:51:08;14.03;;;7.17;;
29938;SDS011;16799;50.844;5.304;2022-08-20T02:53:36;10.70;;;8.73;;
29938;SDS011;16799;50.844;5.304;2022-08-20T02:56:07;11.03;;;7.50;;
29938;SDS011;16799;50.844;5.304;2022-08-20T02:58:34;15.87;;;7.67;;
29938;SDS011;16799;50.844;5.304;2022-08-20T03:01:01;14.30;;;9.53;;
29938;SDS011;16799;50.844;5.304;2022-08-20T03:03:28;9.03;;;7.97;;
29938;SDS011;16799;50.844;5.304;2022-08-20T03:05:55;7.83;;;7.13;;
29938;SDS011;16799;50.844;5.304;2022-08-20T03:08:22;10.13;;;6.80;;
29938;SDS011;16799;50.844;5.304;2022-08-20T03:10:49;10.53;;;6.77;;
29938;SDS011;16799;50.844;5.304;2022-08-20T03:13:15;8.87;;;6.27;;
29938;SDS011;16799;50.844;5.304;2022-08-20T03:15:47;18.17;;;8.20;;
29938;SDS011;16799;50.844;5.304;2022-08-20T03:18:16;8.13;;;5.80;;
29938;SDS011;16799;50.844;5.304;2022-08-20T03:20:43;19.30;;;5.43;;
29938;SDS011;16799;50.844;5.304;2022-08-20T03:23:10;20.03;;;6.83;;
29938;SDS011;16799;50.844;5.304;2022-08-20T03:25:35;23.40;;;6.40;;
29938;SDS011;16799;50.844;5.304;2022-08-20T03:28:01;9.90;;;6.00;;
29938;SDS011;16799;50.844;5.304;2022-08-20T03:30:27;22.00;;;7.30;;
29938;SDS011;16799;50.844;5.304;2022-08-20T03:32:53;23.27;;;6.77;;
29938;SDS011;16799;50.844;5.304;2022-08-20T03:35:20;15.63;;;7.37;;
29938;SDS011;16799;50.844;5.304;2022-08-20T03:37:47;9.33;;;6.70;;
29938;SDS011;16799;50.844;5.304;2022-08-20T03:40:19;11.00;;;6.90;;
29938;SDS011;16799;50.844;5.304;2022-08-20T03:42:50;20.73;;;6.37;;
29938;SDS011;16799;50.844;5.304;2022-08-20T03:45:17;9.87;;;6.50;;
29938;SDS011;16799;50.844;5.304;2022-08-20T03:47:43;22.37;;;8.53;;
29938;SDS011;16799;50.844;5.304;2022-08-20T03:50:09;11.43;;;7.43;;
29938;SDS011;16799;50.844;5.304;2022-08-20T03:52:36;10.57;;;6.67;;
29938;SDS011;16799;50.844;5.304;2022-08-20T03:55:02;11.10;;;7.80;;
29938;SDS011;16799;50.844;5.304;2022-08-20T03:57:29;11.87;;;7.80;;
29938;SDS011;16799;50.844;5.304;2022-08-20T03:59:54;13.47;;;7.37;;
29938;SDS011;16799;50.844;5.304;2022-08-20T04:02:20;15.73;;;9.60;;
29938;SDS011;16799;50.844;5.304;2022-08-20T04:04:46;17.20;;;10.50;;
29938;SDS011;16799;50.844;5.304;2022-08-20T04:07:13;13.60;;;8.30;;
29938;SDS011;16799;50.844;5.304;2022-08-20T04:09:41;11.03;;;9.87;;
29938;SDS011;16799;50.844;5.304;2022-08-20T04:12:10;28.10;;;11.87;;
29938;SDS011;16799;50.844;5.304;2022-08-20T04:14:39;25.17;;;10.57;;
29938;SDS011;16799;50.844;5.304;2022-08-20T04:17:05;15.97;;;8.70;;
29938;SDS011;16799;50.844;5.304;2022-08-20T04:19:34;13.13;;;11.40;;
29938;SDS011;16799;50.844;5.304;2022-08-20T04:22:01;31.17;;;11.80;;
29938;SDS011;16799;50.844;5.304;2022-08-20T04:24:26;21.13;;;10.60;;
29938;SDS011;16799;50.844;5.304;2022-08-20T04:26:52;19.93;;;11.13;;
29938;SDS011;16799;50.844;5.304;2022-08-20T04:29:19;18.93;;;10.10;;
29938;SDS011;16799;50.844;5.304;2022-08-20T04:31:50;13.43;;;10.10;;
29938;SDS011;16799;50.844;5.304;2022-08-20T04:34:16;23.30;;;10.07;;
29938;SDS011;16799;50.844;5.304;2022-08-20T04:36:43;34.83;;;10.27;;
29938;SDS011;16799;50.844;5.304;2022-08-20T04:39:11;20.10;;;9.83;;
29938;SDS011;16799;50.844;5.304;2022-08-20T04:41:40;18.57;;;8.40;;
29938;SDS011;16799;50.844;5.304;2022-08-20T04:44:06;29.93;;;12.00;;
29938;SDS011;16799;50.844;5.304;2022-08-20T04:46:33;31.23;;;12.30;;
29938;SDS011;16799;50.844;5.304;2022-08-20T04:48:59;18.43;;;9.90;;
29938;SDS011;16799;50.844;5.304;2022-08-20T04:51:27;18.17;;;9.83;;
29938;SDS011;16799;50.844;5.304;2022-08-20T04:53:53;24.30;;;9.60;;
29938;SDS011;16799;50.844;5.304;2022-08-20T04:56:24;16.50;;;8.23;;
29938;SDS011;16799;50.844;5.304;2022-08-20T04:58:57;18.90;;;9.17;;
29938;SDS011;16799;50.844;5.304;2022-08-20T05:01:25;21.67;;;8.00;;
29938;SDS011;16799;50.844;5.304;2022-08-20T05:03:52;15.97;;;8.43;;
29938;SDS011;16799;50.844;5.304;2022-08-20T05:06:21;23.67;;;8.17;;
29938;SDS011;16799;50.844;5.304;2022-08-20T05:08:53;15.47;;;7.57;;
29938;SDS011;16799;50.844;5.304;2022-08-20T05:11:22;21.00;;;9.47;;
29938;SDS011;16799;50.844;5.304;2022-08-20T05:13:48;29.30;;;7.03;;
29938;SDS011;16799;50.844;5.304;2022-08-20T05:16:17;15.63;;;7.30;;
29938;SDS011;16799;50.844;5.304;2022-08-20T05:18:44;17.50;;;7.67;;
29938;SDS011;16799;50.844;5.304;2022-08-20T05:21:10;19.10;;;7.83;;
29938;SDS011;16799;50.844;5.304;2022-08-20T05:23:37;22.97;;;8.00;;
29938;SDS011;16799;50.844;5.304;2022-08-20T05:26:07;30.23;;;9.93;;
29938;SDS011;16799;50.844;5.304;2022-08-20T05:28:34;17.47;;;9.13;;
29938;SDS011;16799;50.844;5.304;2022-08-20T05:31:02;32.97;;;8.10;;
29938;SDS011;16799;50.844;5.304;2022-08-20T05:33:29;25.20;;;8.57;;
29938;SDS011;16799;50.844;5.304;2022-08-20T05:35:55;22.83;;;8.00;;
29938;SDS011;16799;50.844;5.304;2022-08-20T05:38:23;29.63;;;9.07;;
29938;SDS011;16799;50.844;5.304;2022-08-20T05:40:51;22.07;;;9.67;;
29938;SDS011;16799;50.844;5.304;2022-08-20T05:43:17;24.00;;;8.30;;
29938;SDS011;16799;50.844;5.304;2022-08-20T05:45:43;22.33;;;8.20;;
29938;SDS011;16799;50.844;5.304;2022-08-20T05:48:11;26.00;;;9.87;;
29938;SDS011;16799;50.844;5.304;2022-08-20T05:50:40;15.03;;;9.40;;
29938;SDS011;16799;50.844;5.304;2022-08-20T05:53:08;23.47;;;9.30;;
29938;SDS011;16799;50.844;5.304;2022-08-20T05:55:34;19.83;;;9.27;;
29938;SDS011;16799;50.844;5.304;2022-08-20T05:58:04;27.10;;;10.50;;
29938;SDS011;16799;50.844;5.304;2022-08-20T06:00:31;23.93;;;9.87;;
29938;SDS011;16799;50.844;5.304;2022-08-20T06:02:58;15.73;;;7.70;;
29938;SDS011;16799;50.844;5.304;2022-08-20T06:05:42;36.87;;;11.13;;
29938;SDS011;16799;50.844;5.304;2022-08-20T06:08:09;33.60;;;9.90;;
29938;SDS011;16799;50.844;5.304;2022-08-20T06:10:35;23.47;;;9.10;;
29938;SDS011;16799;50.844;5.304;2022-08-20T06:13:02;37.60;;;10.07;;
29938;SDS011;16799;50.844;5.304;2022-08-20T06:15:28;26.60;;;10.80;;
29938;SDS011;16799;50.844;5.304;2022-08-20T06:17:54;30.07;;;11.73;;
29938;SDS011;16799;50.844;5.304;2022-08-20T06:20:20;23.00;;;12.03;;
29938;SDS011;16799;50.844;5.304;2022-08-20T06:22:47;36.77;;;10.73;;
29938;SDS011;16799;50.844;5.304;2022-08-20T06:25:12;25.33;;;10.93;;
29938;SDS011;16799;50.844;5.304;2022-08-20T06:27:39;38.43;;;11.87;;
29938;SDS011;16799;50.844;5.304;2022-08-20T06:30:07;28.83;;;9.37;;
29938;SDS011;16799;50.844;5.304;2022-08-20T06:32:35;31.63;;;10.30;;
29938;SDS011;16799;50.844;5.304;2022-08-20T06:35:02;47.63;;;9.70;;
29938;SDS011;16799;50.844;5.304;2022-08-20T06:37:30;25.43;;;11.03;;
29938;SDS011;16799;50.844;5.304;2022-08-20T06:40:01;38.37;;;10.07;;
29938;SDS011;16799;50.844;5.304;2022-08-20T06:42:31;29.73;;;10.50;;
29938;SDS011;16799;50.844;5.304;2022-08-20T06:44:56;30.93;;;10.40;;
29938;SDS011;16799;50.844;5.304;2022-08-20T06:47:23;33.03;;;11.87;;
29938;SDS011;16799;50.844;5.304;2022-08-20T06:49:49;46.17;;;11.70;;
29938;SDS011;16799;50.844;5.304;2022-08-20T06:52:15;19.10;;;8.87;;
29938;SDS011;16799;50.844;5.304;2022-08-20T06:54:41;34.30;;;10.43;;
29938;SDS011;16799;50.844;5.304;2022-08-20T06:57:08;27.87;;;10.37;;
29938;SDS011;16799;50.844;5.304;2022-08-20T06:59:34;38.73;;;11.43;;
29938;SDS011;16799;50.844;5.304;2022-08-20T07:02:00;34.93;;;12.47;;
29938;SDS011;16799;50.844;5.304;2022-08-20T07:04:26;46.03;;;13.67;;
29938;SDS011;16799;50.844;5.304;2022-08-20T07:06:53;25.37;;;11.53;;
29938;SDS011;16799;50.844;5.304;2022-08-20T07:09:21;32.27;;;12.23;;
29938;SDS011;16799;50.844;5.304;2022-08-20T07:11:48;37.67;;;12.53;;
29938;SDS011;16799;50.844;5.304;2022-08-20T07:14:14;42.10;;;13.70;;
29938;SDS011;16799;50.844;5.304;2022-08-20T07:16:42;33.20;;;12.17;;
29938;SDS011;16799;50.844;5.304;2022-08-20T07:19:08;30.43;;;11.67;;
29938;SDS011;16799;50.844;5.304;2022-08-20T07:21:34;32.70;;;11.67;;
29938;SDS011;16799;50.844;5.304;2022-08-20T07:24:00;32.07;;;13.13;;
29938;SDS011;16799;50.844;5.304;2022-08-20T07:26:25;49.57;;;16.13;;
29938;SDS011;16799;50.844;5.304;2022-08-20T07:28:51;33.17;;;13.43;;
29938;SDS011;16799;50.844;5.304;2022-08-20T07:31:17;48.30;;;14.77;;
29938;SDS011;16799;50.844;5.304;2022-08-20T07:34:01;54.03;;;15.77;;
29938;SDS011;16799;50.844;5.304;2022-08-20T07:36:27;50.47;;;15.47;;
29938;SDS011;16799;50.844;5.304;2022-08-20T07:38:53;35.10;;;13.70;;
29938;SDS011;16799;50.844;5.304;2022-08-20T07:41:19;45.80;;;16.77;;
29938;SDS011;16799;50.844;5.304;2022-08-20T07:43:45;49.80;;;20.10;;
29938;SDS011;16799;50.844;5.304;2022-08-20T07:46:16;59.30;;;17.87;;
29938;SDS011;16799;50.844;5.304;2022-08-20T07:48:44;35.90;;;16.33;;
29938;SDS011;16799;50.844;5.304;2022-08-20T07:51:11;42.03;;;16.90;;
29938;SDS011;16799;50.844;5.304;2022-08-20T07:53:38;38.63;;;17.60;;
29938;SDS011;16799;50.844;5.304;2022-08-20T07:56:05;54.30;;;18.20;;
29938;SDS011;16799;50.844;5.304;2022-08-20T07:58:34;47.87;;;15.53;;
29938;SDS011;16799;50.844;5.304;2022-08-20T08:01:02;46.20;;;15.27;;
29938;SDS011;16799;50.844;5.304;2022-08-20T08:03:30;33.33;;;19.23;;
29938;SDS011;16799;50.844;5.304;2022-08-20T08:05:56;41.07;;;15.37;;
29938;SDS011;16799;50.844;5.304;2022-08-20T08:08:22;42.33;;;16.10;;
29938;SDS011;16799;50.844;5.304;2022-08-20T08:10:51;35.57;;;17.37;;
29938;SDS011;16799;50.844;5.304;2022-08-20T08:13:20;40.40;;;15.27;;
29938;SDS011;16799;50.844;5.304;2022-08-20T08:15:50;36.20;;;15.77;;
29938;SDS011;16799;50.844;5.304;2022-08-20T08:18:19;41.40;;;16.80;;
29938;SDS011;16799;50.844;5.304;2022-08-20T08:20:48;38.07;;;17.77;;
29938;SDS011;16799;50.844;5.304;2022-08-20T08:23:17;43.27;;;16.03;;
29938;SDS011;16799;50.844;5.304;2022-08-20T08:25:45;40.87;;;16.40;;
29938;SDS011;16799;50.844;5.304;2022-08-20T08:28:11;48.60;;;17.17;;
29938;SDS011;16799;50.844;5.304;2022-08-20T08:30:38;36.70;;;17.43;;
29938;SDS011;16799;50.844;5.304;2022-08-20T08:33:05;45.10;;;18.60;;
29938;SDS011;16799;50.844;5.304;2022-08-20T08:35:55;46.27;;;16.20;;
29938;SDS011;16799;50.844;5.304;2022-08-20T08:38:26;60.80;;;17.87;;
29938;SDS011;16799;50.844;5.304;2022-08-20T08:40:54;33.80;;;17.10;;
29938;SDS011;16799;50.844;5.304;2022-08-20T08:43:22;42.27;;;17.33;;
29938;SDS011;16799;50.844;5.304;2022-08-20T08:45:55;34.97;;;16.27;;
29938;SDS011;16799;50.844;5.304;2022-08-20T08:48:30;58.03;;;17.73;;
29938;SDS011;16799;50.844;5.304;2022-08-20T08:50:59;37.93;;;17.67;;
29938;SDS011;16799;50.844;5.304;2022-08-20T08:53:28;40.00;;;17.87;;
29938;SDS011;16799;50.844;5.304;2022-08-20T08:55:59;44.50;;;18.60;;
29938;SDS011;16799;50.844;5.304;2022-08-20T08:58:25;43.87;;;17.50;;
29938;SDS011;16799;50.844;5.304;2022-08-20T09:00:52;36.93;;;17.50;;
29938;SDS011;16799;50.844;5.304;2022-08-20T09:03:22;44.67;;;18.60;;
29938;SDS011;16799;50.844;5.304;2022-08-20T09:05:54;38.00;;;16.67;;
29938;SDS011;16799;50.844;5.304;2022-08-20T09:08:25;35.00;;;17.63;;
29938;SDS011;16799;50.844;5.304;2022-08-20T09:10:59;28.03;;;15.87;;
29938;SDS011;16799;50.844;5.304;2022-08-20T09:13:28;31.73;;;15.43;;
29938;SDS011;16799;50.844;5.304;2022-08-20T09:15:53;22.03;;;14.77;;
29938;SDS011;16799;50.844;5.304;2022-08-20T09:18:19;41.63;;;17.33;;
29938;SDS011;16799;50.844;5.304;2022-08-20T09:20:45;33.17;;;17.80;;
29938;SDS011;16799;50.844;5.304;2022-08-20T09:23:10;39.83;;;16.57;;
29938;SDS011;16799;50.844;5.304;2022-08-20T09:25:36;37.83;;;15.50;;
29938;SDS011;16799;50.844;5.304;2022-08-20T09:28:01;37.00;;;14.97;;
29938;SDS011;16799;50.844;5.304;2022-08-20T09:30:27;35.23;;;15.10;;
29938;SDS011;16799;50.844;5.304;2022-08-20T09:32:53;33.60;;;14.67;;
29938;SDS011;16799;50.844;5.304;2022-08-20T09:35:19;27.87;;;13.37;;
29938;SDS011;16799;50.844;5.304;2022-08-20T09:37:44;33.73;;;14.00;;
29938;SDS011;16799;50.844;5.304;2022-08-20T09:40:11;17.37;;;10.70;;
29938;SDS011;16799;50.844;5.304;2022-08-20T09:42:36;17.33;;;12.13;;
29938;SDS011;16799;50.844;5.304;2022-08-20T09:45:03;19.37;;;11.83;;
29938;SDS011;16799;50.844;5.304;2022-08-20T09:47:29;20.90;;;11.07;;
29938;SDS011;16799;50.844;5.304;2022-08-20T09:49:54;19.73;;;11.50;;
29938;SDS011;16799;50.844;5.304;2022-08-20T09:52:24;19.83;;;11.00;;
29938;SDS011;16799;50.844;5.304;2022-08-20T09:54:57;25.90;;;9.97;;
29938;SDS011;16799;50.844;5.304;2022-08-20T09:57:28;17.80;;;11.00;;
29938;SDS011;16799;50.844;5.304;2022-08-20T10:00:00;19.73;;;11.80;;
29938;SDS011;16799;50.844;5.304;2022-08-20T10:02:29;17.60;;;9.80;;
29938;SDS011;16799;50.844;5.304;2022-08-20T10:04:55;23.50;;;10.10;;
29938;SDS011;16799;50.844;5.304;2022-08-20T10:07:20;23.17;;;11.70;;
29938;SDS011;16799;50.844;5.304;2022-08-20T10:09:46;20.17;;;10.80;;
29938;SDS011;16799;50.844;5.304;2022-08-20T10:12:11;16.00;;;9.10;;
29938;SDS011;16799;50.844;5.304;2022-08-20T10:14:37;15.23;;;11.53;;
29938;SDS011;16799;50.844;5.304;2022-08-20T10:17:03;17.80;;;9.97;;
29938;SDS011;16799;50.844;5.304;2022-08-20T10:19:29;23.90;;;10.27;;
29938;SDS011;16799;50.844;5.304;2022-08-20T10:21:55;12.50;;;8.80;;
29938;SDS011;16799;50.844;5.304;2022-08-20T10:24:21;17.70;;;8.67;;
29938;SDS011;16799;50.844;5.304;2022-08-20T10:26:47;15.93;;;8.93;;
29938;SDS011;16799;50.844;5.304;2022-08-20T10:29:13;11.73;;;9.07;;
29938;SDS011;16799;50.844;5.304;2022-08-20T10:31:39;17.07;;;9.20;;
29938;SDS011;16799;50.844;5.304;2022-08-20T10:34:05;24.77;;;10.03;;
29938;SDS011;16799;50.844;5.304;2022-08-20T10:36:31;22.40;;;9.87;;
29938;SDS011;16799;50.844;5.304;2022-08-20T10:38:57;35.13;;;9.53;;
29938;SDS011;16799;50.844;5.304;2022-08-20T10:41:23;11.47;;;7.70;;
29938;SDS011;16799;50.844;5.304;2022-08-20T10:43:48;7.77;;;7.03;;
29938;SDS011;16799;50.844;5.304;2022-08-20T10:46:14;16.47;;;8.53;;
29938;SDS011;16799;50.844;5.304;2022-08-20T10:48:40;10.07;;;6.30;;
29938;SDS011;16799;50.844;5.304;2022-08-20T10:51:06;12.17;;;6.43;;
29938;SDS011;16799;50.844;5.304;2022-08-20T10:53:32;14.30;;;6.17;;
29938;SDS011;16799;50.844;5.304;2022-08-20T10:55:57;11.10;;;5.80;;
29938;SDS011;16799;50.844;5.304;2022-08-20T10:58:23;18.30;;;7.67;;
29938;SDS011;16799;50.844;5.304;2022-08-20T11:00:50;10.87;;;5.60;;
29938;SDS011;16799;50.844;5.304;2022-08-20T11:03:16;7.43;;;6.50;;
29938;SDS011;16799;50.844;5.304;2022-08-20T11:05:42;13.33;;;6.27;;
29938;SDS011;16799;50.844;5.304;2022-08-20T11:08:07;7.97;;;4.93;;
29938;SDS011;16799;50.844;5.304;2022-08-20T11:10:33;14.67;;;7.00;;
29938;SDS011;16799;50.844;5.304;2022-08-20T11:13:01;8.43;;;6.70;;
29938;SDS011;16799;50.844;5.304;2022-08-20T11:15:28;13.97;;;4.87;;
29938;SDS011;16799;50.844;5.304;2022-08-20T11:17:54;9.13;;;6.23;;
29938;SDS011;16799;50.844;5.304;2022-08-20T11:20:20;9.80;;;4.67;;
29938;SDS011;16799;50.844;5.304;2022-08-20T11:22:49;9.30;;;5.90;;
29938;SDS011;16799;50.844;5.304;2022-08-20T11:25:14;12.60;;;5.73;;
29938;SDS011;16799;50.844;5.304;2022-08-20T11:27:41;9.03;;;5.83;;
29938;SDS011;16799;50.844;5.304;2022-08-20T11:30:11;12.93;;;5.90;;
29938;SDS011;16799;50.844;5.304;2022-08-20T11:32:39;9.23;;;3.70;;
29938;SDS011;16799;50.844;5.304;2022-08-20T11:35:06;11.43;;;3.33;;
29938;SDS011;16799;50.844;5.304;2022-08-20T11:37:32;7.73;;;3.97;;
29938;SDS011;16799;50.844;5.304;2022-08-20T11:39:58;9.30;;;4.10;;
29938;SDS011;16799;50.844;5.304;2022-08-20T11:42:24;13.33;;;5.40;;
29938;SDS011;16799;50.844;5.304;2022-08-20T11:44:49;10.33;;;4.13;;
29938;SDS011;16799;50.844;5.304;2022-08-20T11:47:22;5.90;;;2.70;;
29938;SDS011;16799;50.844;5.304;2022-08-20T11:49:57;5.27;;;2.50;;
29938;SDS011;16799;50.844;5.304;2022-08-20T11:52:25;7.60;;;3.10;;
29938;SDS011;16799;50.844;5.304;2022-08-20T11:54:51;8.80;;;3.87;;
29938;SDS011;16799;50.844;5.304;2022-08-20T11:57:21;10.63;;;4.37;;
29938;SDS011;16799;50.844;5.304;2022-08-20T11:59:51;7.67;;;4.83;;
29938;SDS011;16799;50.844;5.304;2022-08-20T12:02:18;13.27;;;4.43;;
29938;SDS011;16799;50.844;5.304;2022-08-20T12:04:44;8.73;;;2.60;;
29938;SDS011;16799;50.844;5.304;2022-08-20T12:07:11;9.40;;;4.43;;
29938;SDS011;16799;50.844;5.304;2022-08-20T12:09:37;8.10;;;2.93;;
29938;SDS011;16799;50.844;5.304;2022-08-20T12:12:04;4.93;;;3.03;;
29938;SDS011;16799;50.844;5.304;2022-08-20T12:14:30;16.40;;;4.70;;
29938;SDS011;16799;50.844;5.304;2022-08-20T12:16:56;35.60;;;5.47;;
29938;SDS011;16799;50.844;5.304;2022-08-20T12:19:22;5.77;;;2.90;;
29938;SDS011;16799;50.844;5.304;2022-08-20T12:21:47;6.67;;;3.23;;
29938;SDS011;16799;50.844;5.304;2022-08-20T12:24:13;5.30;;;2.47;;
29938;SDS011;16799;50.844;5.304;2022-08-20T12:26:38;9.43;;;3.17;;
29938;SDS011;16799;50.844;5.304;2022-08-20T12:29:04;5.17;;;2.47;;
29938;SDS011;16799;50.844;5.304;2022-08-20T12:31:30;4.27;;;1.93;;
29938;SDS011;16799;50.844;5.304;2022-08-20T12:33:56;6.93;;;2.43;;
29938;SDS011;16799;50.844;5.304;2022-08-20T12:36:22;12.73;;;3.07;;
29938;SDS011;16799;50.844;5.304;2022-08-20T12:38:47;7.03;;;2.53;;
29938;SDS011;16799;50.844;5.304;2022-08-20T12:41:13;9.90;;;2.60;;
29938;SDS011;16799;50.844;5.304;2022-08-20T12:43:39;6.17;;;3.70;;
29938;SDS011;16799;50.844;5.304;2022-08-20T12:46:04;6.67;;;2.47;;
29938;SDS011;16799;50.844;5.304;2022-08-20T12:48:30;5.53;;;2.50;;
29938;SDS011;16799;50.844;5.304;2022-08-20T12:50:56;5.20;;;2.73;;
29938;SDS011;16799;50.844;5.304;2022-08-20T12:53:21;11.37;;;3.00;;
29938;SDS011;16799;50.844;5.304;2022-08-20T12:55:47;9.53;;;3.10;;
29938;SDS011;16799;50.844;5.304;2022-08-20T12:58:13;3.03;;;2.17;;
29938;SDS011;16799;50.844;5.304;2022-08-20T13:00:42;9.60;;;2.77;;
29938;SDS011;16799;50.844;5.304;2022-08-20T13:03:09;6.30;;;2.40;;
29938;SDS011;16799;50.844;5.304;2022-08-20T13:05:36;11.60;;;2.50;;
29938;SDS011;16799;50.844;5.304;2022-08-20T13:08:06;8.00;;;2.70;;
29938;SDS011;16799;50.844;5.304;2022-08-20T13:10:33;4.40;;;2.17;;
29938;SDS011;16799;50.844;5.304;2022-08-20T13:13:01;5.13;;;2.60;;
29938;SDS011;16799;50.844;5.304;2022-08-20T13:15:27;11.63;;;2.83;;
29938;SDS011;16799;50.844;5.304;2022-08-20T13:17:56;10.93;;;2.80;;
29938;SDS011;16799;50.844;5.304;2022-08-20T13:20:23;7.93;;;2.60;;
29938;SDS011;16799;50.844;5.304;2022-08-20T13:22:51;6.50;;;2.20;;
29938;SDS011;16799;50.844;5.304;2022-08-20T13:25:17;4.63;;;1.90;;
29938;SDS011;16799;50.844;5.304;2022-08-20T13:27:43;9.13;;;1.97;;
29938;SDS011;16799;50.844;5.304;2022-08-20T13:30:10;9.13;;;2.40;;
29938;SDS011;16799;50.844;5.304;2022-08-20T13:32:38;3.67;;;1.80;;
29938;SDS011;16799;50.844;5.304;2022-08-20T13:35:05;11.53;;;2.60;;
29938;SDS011;16799;50.844;5.304;2022-08-20T13:37:31;2.57;;;2.37;;
29938;SDS011;16799;50.844;5.304;2022-08-20T13:39:57;6.43;;;2.70;;
29938;SDS011;16799;50.844;5.304;2022-08-20T13:42:24;6.60;;;2.40;;
29938;SDS011;16799;50.844;5.304;2022-08-20T13:44:50;5.70;;;2.50;;
29938;SDS011;16799;50.844;5.304;2022-08-20T13:47:21;10.13;;;2.33;;
29938;SDS011;16799;50.844;5.304;2022-08-20T13:49:55;6.83;;;1.90;;
29938;SDS011;16799;50.844;5.304;2022-08-20T13:52:23;17.83;;;3.33;;
29938;SDS011;16799;50.844;5.304;2022-08-20T13:54:50;5.20;;;2.33;;
29938;SDS011;16799;50.844;5.304;2022-08-20T13:57:16;4.37;;;2.30;;
29938;SDS011;16799;50.844;5.304;2022-08-20T13:59:44;8.07;;;2.87;;
29938;SDS011;16799;50.844;5.304;2022-08-20T14:02:12;6.53;;;2.07;;
29938;SDS011;16799;50.844;5.304;2022-08-20T14:04:38;5.77;;;2.93;;
29938;SDS011;16799;50.844;5.304;2022-08-20T14:07:18;8.93;;;2.60;;
29938;SDS011;16799;50.844;5.304;2022-08-20T14:09:53;3.33;;;2.60;;
29938;SDS011;16799;50.844;5.304;2022-08-20T14:12:21;5.00;;;3.03;;
29938;SDS011;16799;50.844;5.304;2022-08-20T14:14:47;4.70;;;2.70;;
29938;SDS011;16799;50.844;5.304;2022-08-20T14:17:15;5.30;;;1.63;;
29938;SDS011;16799;50.844;5.304;2022-08-20T14:19:52;6.37;;;2.50;;
29938;SDS011;16799;50.844;5.304;2022-08-20T14:22:32;6.23;;;1.90;;
29938;SDS011;16799;50.844;5.304;2022-08-20T14:24:58;4.30;;;2.40;;
29938;SDS011;16799;50.844;5.304;2022-08-20T14:27:27;3.63;;;1.73;;
29938;SDS011;16799;50.844;5.304;2022-08-20T14:29:54;8.13;;;2.00;;
29938;SDS011;16799;50.844;5.304;2022-08-20T14:32:20;4.50;;;2.90;;
29938;SDS011;16799;50.844;5.304;2022-08-20T14:34:45;11.97;;;3.50;;
29938;SDS011;16799;50.844;5.304;2022-08-20T14:37:23;8.10;;;3.43;;
29938;SDS011;16799;50.844;5.304;2022-08-20T14:39:52;4.77;;;2.10;;